createdAt,value
2019-05-06T00:01:38.097Z,28.80
2019-05-06T00:04:41.812Z,28.50
2019-05-06T00:07:53.813Z,28.70
2019-05-06T00:10:58.337Z,29.10
2019-05-06T00:14:03.902Z,29.20
2019-05-06T00:17:07.658Z,29.30
2019-05-06T00:20:11.509Z,29.40
2019-05-06T00:23:20.845Z,29.60
2019-05-06T00:26:45.275Z,29.60
2019-05-06T00:29:49.005Z,29.90
2019-05-06T00:32:53.851Z,29.80
2019-05-06T00:36:00.349Z,29.70
2019-05-06T00:39:27.805Z,30.00
2019-05-06T00:42:34.620Z,30.00
2019-05-06T00:45:38.310Z,29.90
2019-05-06T00:48:41.988Z,29.80
2019-05-06T00:51:45.740Z,29.60
2019-05-06T00:54:49.902Z,30.00
2019-05-06T00:57:54.508Z,29.80
2019-05-06T01:00:58.358Z,29.50
2019-05-06T01:04:04.434Z,29.50
2019-05-06T01:07:07.561Z,29.50
2019-05-06T01:10:11.705Z,29.40
2019-05-06T01:13:27.289Z,29.20
2019-05-06T01:16:31.181Z,29.20
2019-05-06T01:19:35.029Z,29.20
2019-05-06T01:22:38.731Z,29.20
2019-05-06T01:25:43.822Z,29.30
2019-05-06T01:28:47.685Z,29.40
2019-05-06T01:31:51.410Z,29.70
2019-05-06T01:34:55.070Z,29.80
2019-05-06T01:38:16.127Z,29.90
2019-05-06T01:41:34.273Z,29.90
2019-05-06T01:44:37.973Z,30.00
2019-05-06T01:47:43.764Z,30.00
2019-05-06T01:50:47.754Z,30.20
2019-05-06T01:53:54.172Z,29.90
2019-05-06T01:56:57.471Z,30.10
2019-05-06T02:00:01.618Z,30.00
2019-05-06T02:03:05.310Z,30.10
2019-05-06T02:06:09.006Z,30.60
2019-05-06T02:09:15.842Z,30.60
2019-05-06T02:12:19.578Z,30.70
2019-05-06T02:15:23.914Z,31.20
2019-05-06T02:18:27.796Z,31.00
2019-05-06T02:21:49.247Z,31.60
2019-05-06T02:24:59.151Z,31.60
2019-05-06T02:28:03.956Z,31.80
2019-05-06T02:31:25.933Z,32.40
2019-05-06T02:34:47.183Z,32.30
2019-05-06T02:37:50.899Z,32.50
2019-05-06T02:40:54.754Z,32.50
2019-05-06T02:43:58.630Z,33.10
2019-05-06T02:47:22.859Z,33.20
2019-05-06T02:50:27.001Z,33.60
2019-05-06T02:53:33.418Z,33.80
2019-05-06T02:56:36.384Z,33.90
2019-05-06T02:59:40.068Z,33.80
2019-05-06T03:02:48.025Z,34.40
2019-05-06T03:05:49.231Z,34.60
2019-05-06T03:08:54.455Z,35.50
2019-05-06T03:11:58.311Z,35.90
2019-05-06T03:15:03.387Z,36.40
2019-05-06T03:18:07.284Z,36.40
2019-05-06T03:21:39.030Z,36.50
2019-05-06T03:24:47.960Z,37.30
2019-05-06T03:27:53.246Z,37.60
2019-05-06T03:30:57.275Z,38.00
2019-05-06T03:34:28.429Z,38.40
2019-05-06T03:37:08.446Z,39.30
2019-05-06T03:40:13.872Z,39.60
2019-05-06T03:43:17.674Z,40.20
2019-05-06T03:46:29.170Z,40.20
2019-05-06T03:49:34.756Z,40.30
2019-05-06T03:52:38.419Z,40.30
2019-05-06T03:55:46.780Z,40.40
2019-05-06T03:58:53.745Z,41.00
2019-05-06T04:01:57.109Z,40.90
2019-05-06T04:05:03.583Z,41.70
2019-05-06T04:08:06.374Z,41.70
2019-05-06T04:11:13.652Z,41.50
2019-05-06T04:14:18.431Z,42.20
2019-05-06T04:17:32.909Z,41.30
2019-05-06T04:20:58.949Z,42.00
2019-05-06T04:24:15.539Z,41.60
2019-05-06T04:27:35.551Z,42.50
2019-05-06T04:30:42.912Z,42.60
2019-05-06T04:34:03.559Z,41.90
2019-05-06T04:36:53.298Z,42.60
2019-05-06T04:39:57.810Z,42.60
2019-05-06T04:43:03.610Z,42.90
2019-05-06T04:46:07.298Z,42.60
2019-05-06T04:49:14.847Z,42.40
2019-05-06T04:52:17.365Z,42.10
2019-05-06T04:55:22.638Z,41.90
2019-05-06T04:58:27.540Z,41.80
2019-05-06T05:01:34.032Z,41.40
2019-05-06T05:04:37.245Z,41.30
2019-05-06T05:07:42.559Z,40.80
2019-05-06T05:10:55.010Z,40.10
2019-05-06T05:14:14.742Z,39.20
2019-05-06T05:17:36.946Z,38.80
2019-05-06T05:20:45.655Z,37.80
2019-05-06T05:23:46.368Z,37.40
2019-05-06T05:26:52.193Z,36.80
2019-05-06T05:29:56.085Z,36.70
2019-05-06T05:33:00.098Z,35.60
2019-05-06T05:36:04.340Z,36.00
2019-05-06T05:39:17.595Z,34.30
2019-05-06T05:42:28.120Z,34.70
2019-05-06T05:45:32.731Z,34.20
2019-05-06T05:48:47.594Z,33.40
2019-05-06T05:51:52.049Z,33.10
2019-05-06T05:54:55.897Z,32.10
2019-05-06T05:57:59.590Z,30.90
2019-05-06T06:01:04.200Z,29.90
2019-05-06T06:04:08.158Z,29.50
2019-05-06T06:07:12.221Z,29.60
2019-05-06T06:10:22.634Z,28.30
2019-05-06T06:13:26.535Z,28.30
2019-05-06T06:16:44.246Z,27.80
2019-05-06T06:20:08.886Z,27.50
2019-05-06T06:23:19.506Z,27.40
2019-05-06T06:26:23.277Z,26.20
2019-05-06T06:29:27.638Z,26.30
2019-05-06T06:32:32.613Z,25.60
2019-05-06T06:36:02.865Z,26.00
2019-05-06T06:39:14.625Z,26.10
2019-05-06T06:42:18.374Z,26.10
2019-05-06T06:45:23.083Z,26.80
2019-05-06T06:48:27.967Z,25.70
2019-05-06T06:51:33.039Z,25.10
2019-05-06T06:54:36.958Z,24.70
2019-05-06T06:58:11.837Z,24.70
2019-05-06T07:01:33.139Z,25.00
2019-05-06T07:04:43.121Z,25.20
2019-05-06T07:07:47.952Z,25.40
2019-05-06T07:10:52.525Z,25.30
2019-05-06T07:13:57.145Z,24.60
2019-05-06T07:17:02.482Z,24.40
2019-05-06T07:20:09.566Z,24.40
2019-05-06T07:23:25.746Z,24.30
2019-05-06T07:26:33.717Z,24.40
2019-05-06T07:29:37.438Z,25.90
2019-05-06T07:32:42.402Z,25.30
2019-05-06T07:35:47.242Z,25.40
2019-05-06T07:38:52.777Z,24.90
2019-05-06T07:42:02.443Z,24.20
2019-05-06T07:45:32.851Z,25.60
2019-05-06T07:48:37.419Z,23.90
2019-05-06T07:51:42.012Z,23.30
2019-05-06T07:54:45.791Z,22.60
2019-05-06T07:57:50.569Z,22.80
2019-05-06T08:00:55.367Z,23.20
2019-05-06T08:03:59.086Z,23.30
2019-05-06T08:07:03.243Z,24.20
2019-05-06T08:10:07.165Z,23.30
2019-05-06T08:13:12.998Z,23.90
2019-05-06T08:16:17.031Z,23.50
2019-05-06T08:19:22.751Z,23.40
2019-05-06T08:22:49.624Z,23.20
2019-05-06T08:26:08.354Z,22.60
2019-05-06T08:28:59.198Z,22.40
2019-05-06T08:32:03.048Z,22.50
2019-05-06T08:35:09.969Z,22.10
2019-05-06T08:38:12.673Z,21.70
2019-05-06T08:41:16.345Z,22.60
2019-05-06T08:44:20.024Z,22.70
2019-05-06T08:47:23.794Z,23.10
2019-05-06T08:50:32.678Z,22.70
2019-05-06T08:53:47.206Z,22.60
2019-05-06T08:56:52.296Z,21.60
2019-05-06T08:59:56.282Z,19.90
2019-05-06T09:02:59.955Z,19.50
2019-05-06T09:06:03.913Z,19.80
2019-05-06T09:09:08.886Z,19.70
2019-05-06T09:12:13.099Z,20.40
2019-05-06T09:15:17.189Z,19.80
2019-05-06T09:18:20.906Z,19.20
2019-05-06T09:21:24.609Z,19.80
2019-05-06T09:24:28.341Z,19.20
2019-05-06T09:27:55.151Z,19.50
2019-05-06T09:31:05.588Z,20.30
2019-05-06T09:34:17.734Z,20.10
2019-05-06T09:37:23.917Z,20.40
2019-05-06T09:40:27.436Z,21.10
2019-05-06T09:43:32.782Z,19.20
2019-05-06T09:46:36.785Z,17.40
2019-05-06T09:49:42.544Z,17.80
2019-05-06T09:52:46.071Z,17.00
2019-05-06T09:56:07.942Z,17.10
2019-05-06T09:59:12.925Z,16.50
2019-05-06T10:02:17.167Z,17.30
2019-05-06T10:05:20.961Z,18.20
2019-05-06T10:08:24.741Z,18.60
2019-05-06T10:11:28.517Z,19.60
2019-05-06T10:14:32.550Z,19.10
2019-05-06T10:17:36.269Z,19.40
2019-05-06T10:20:43.274Z,18.20
2019-05-06T10:23:47.723Z,18.40
2019-05-06T10:26:56.300Z,17.80
2019-05-06T10:30:06.583Z,18.00
2019-05-06T10:33:14.271Z,18.00
2019-05-06T10:36:18.196Z,18.00
2019-05-06T10:39:25.561Z,18.00
2019-05-06T10:42:36.046Z,18.20
2019-05-06T10:45:39.880Z,16.00
2019-05-06T10:48:43.925Z,16.30
2019-05-06T10:51:56.029Z,15.40
2019-05-06T10:54:59.773Z,15.80
2019-05-06T10:58:03.550Z,15.40
2019-05-06T11:01:16.509Z,15.80
2019-05-06T11:04:22.533Z,15.00
2019-05-06T11:07:31.514Z,15.50
2019-05-06T11:10:40.451Z,14.90
2019-05-06T11:13:37.222Z,16.00
2019-05-06T11:16:41.105Z,16.10
2019-05-06T11:19:45.224Z,15.90
2019-05-06T11:22:48.945Z,16.40
2019-05-06T11:25:52.901Z,15.90
2019-05-06T11:29:05.148Z,14.50
2019-05-06T11:32:14.994Z,14.40
2019-05-06T11:35:35.346Z,14.60
2019-05-06T11:38:39.425Z,15.30
2019-05-06T11:42:01.060Z,15.80
2019-05-06T11:44:48.737Z,15.60
2019-05-06T11:47:55.888Z,15.00
2019-05-06T11:51:00.879Z,14.90
2019-05-06T11:54:16.404Z,15.70
2019-05-06T11:57:12.433Z,16.10
2019-05-06T12:00:19.514Z,15.80
2019-05-06T12:03:23.509Z,15.60
2019-05-06T12:06:27.321Z,14.00
2019-05-06T12:09:33.030Z,13.90
2019-05-06T12:12:36.862Z,13.10
2019-05-06T12:15:40.605Z,12.60
2019-05-06T12:18:44.344Z,12.90
2019-05-06T12:21:48.109Z,13.60
2019-05-06T12:24:52.631Z,14.30
2019-05-06T12:27:56.395Z,14.90
2019-05-06T12:31:00.201Z,14.80
2019-05-06T12:34:04.026Z,15.70
2019-05-06T12:37:11.678Z,15.60
2019-05-06T12:40:15.305Z,15.10
2019-05-06T12:43:43.168Z,15.60
2019-05-06T12:46:59.620Z,15.60
2019-05-06T12:50:02.661Z,15.30
2019-05-06T12:53:06.806Z,15.00
2019-05-06T12:56:12.391Z,15.20
2019-05-06T12:59:15.935Z,15.00
2019-05-06T13:02:19.598Z,16.70
2019-05-06T13:05:24.159Z,15.70
2019-05-06T13:08:47.852Z,16.80
2019-05-06T13:11:33.794Z,16.60
2019-05-06T13:14:37.530Z,16.10
2019-05-06T13:17:42.645Z,16.20
2019-05-06T13:20:49.403Z,16.40
2019-05-06T13:24:00.398Z,15.80
2019-05-06T13:27:04.431Z,16.10
2019-05-06T13:30:08.857Z,16.30
2019-05-06T13:33:34.503Z,16.40
2019-05-06T13:36:38.486Z,16.80
2019-05-06T13:39:43.590Z,16.50
2019-05-06T13:43:09.800Z,16.40
2019-05-06T13:46:17.743Z,16.30
2019-05-06T13:49:42.956Z,15.90
2019-05-06T13:52:48.494Z,15.20
2019-05-06T13:55:52.741Z,15.20
2019-05-06T13:58:56.876Z,15.70
2019-05-06T14:02:25.825Z,16.00
2019-05-06T14:05:30.384Z,15.60
2019-05-06T14:08:34.107Z,17.00
2019-05-06T14:11:38.371Z,16.00
2019-05-06T14:14:43.211Z,15.70
2019-05-06T14:17:47.146Z,16.00
2019-05-06T14:20:52.143Z,15.30
2019-05-06T14:23:56.301Z,15.90
2019-05-06T14:27:03.898Z,15.50
2019-05-06T14:30:14.639Z,15.40
2019-05-06T14:33:19.966Z,15.30
2019-05-06T14:36:27.411Z,15.30
2019-05-06T14:39:48.957Z,15.80
2019-05-06T14:42:37.965Z,15.80
2019-05-06T14:45:42.329Z,16.30
2019-05-06T14:48:46.182Z,16.70
2019-05-06T14:51:50.102Z,17.30
2019-05-06T14:55:01.718Z,17.30
2019-05-06T14:58:06.026Z,17.40
2019-05-06T15:01:09.738Z,17.00
2019-05-06T15:04:13.509Z,17.40
2019-05-06T15:07:17.474Z,17.80
2019-05-06T15:10:24.019Z,17.60
2019-05-06T15:13:27.234Z,17.70
2019-05-06T15:16:30.947Z,18.30
2019-05-06T15:19:34.990Z,18.40
2019-05-06T15:22:38.879Z,18.30
2019-05-06T15:25:42.626Z,18.60
2019-05-06T15:28:46.370Z,18.80
2019-05-06T15:32:02.608Z,19.10
2019-05-06T15:35:28.878Z,19.50
2019-05-06T15:38:32.641Z,20.70
2019-05-06T15:41:36.450Z,20.40
2019-05-06T15:44:42.542Z,20.40
2019-05-06T15:47:45.878Z,20.30
2019-05-06T15:50:49.915Z,20.60
2019-05-06T15:53:53.863Z,21.00
2019-05-06T15:56:58.031Z,21.90
2019-05-06T16:00:02.573Z,22.00
2019-05-06T16:03:06.470Z,22.40
2019-05-06T16:06:12.357Z,22.70
2019-05-06T16:09:15.859Z,22.70
2019-05-06T16:12:19.550Z,23.60
2019-05-06T16:15:24.886Z,23.60
2019-05-06T16:18:28.769Z,23.80
2019-05-06T16:21:33.517Z,23.80
2019-05-06T16:24:43.194Z,24.40
2019-05-06T16:27:51.280Z,24.40
2019-05-06T16:30:54.393Z,24.40
2019-05-06T16:33:58.186Z,24.60
2019-05-06T16:37:01.991Z,24.70
2019-05-06T16:40:07.886Z,25.00
2019-05-06T16:43:12.567Z,25.90
2019-05-06T16:46:16.430Z,26.30
2019-05-06T16:49:20.089Z,26.30
2019-05-06T16:52:23.802Z,26.60
2019-05-06T16:55:46.661Z,26.20
2019-05-06T16:58:53.586Z,26.20
2019-05-06T17:01:58.890Z,26.50
2019-05-06T17:05:22.487Z,27.70
2019-05-06T17:08:26.293Z,27.30
2019-05-06T17:11:33.541Z,28.60
2019-05-06T17:14:35.686Z,28.50
2019-05-06T17:17:43.598Z,28.90
2019-05-06T17:20:45.034Z,28.50
2019-05-06T17:23:48.746Z,28.50
2019-05-06T17:26:56.064Z,28.20
2019-05-06T17:30:15.318Z,28.40
2019-05-06T17:33:36.716Z,28.30
2019-05-06T17:36:42.108Z,28.10
2019-05-06T17:39:46.201Z,27.90
2019-05-06T17:42:50.210Z,27.70
2019-05-06T17:46:02.261Z,27.80
2019-05-06T17:49:08.883Z,27.50
2019-05-06T17:52:18.759Z,27.70
2019-05-06T17:55:22.558Z,27.80
2019-05-06T17:58:26.526Z,28.20
2019-05-06T18:01:37.420Z,28.40
2019-05-06T18:04:43.056Z,28.80
2019-05-06T18:07:46.611Z,29.60
2019-05-06T18:10:52.151Z,29.50
2019-05-06T18:13:55.897Z,30.20
2019-05-06T18:16:59.561Z,30.60
2019-05-06T18:20:03.545Z,31.10
2019-05-06T18:23:07.327Z,31.80
2019-05-06T18:26:11.013Z,33.20
2019-05-06T18:29:14.707Z,33.70
2019-05-06T18:32:18.410Z,33.50
2019-05-06T18:35:29.098Z,33.30
2019-05-06T18:38:33.703Z,33.90
2019-05-06T18:41:37.663Z,33.80
2019-05-06T18:44:42.276Z,34.40
2019-05-06T18:47:46.434Z,33.50
2019-05-06T18:50:51.951Z,33.10
2019-05-06T18:53:55.810Z,32.90
2019-05-06T18:57:02.032Z,32.40
2019-05-06T19:00:05.218Z,32.80
2019-05-06T19:03:08.933Z,32.50
2019-05-06T19:06:12.757Z,32.40
2019-05-06T19:09:32.637Z,32.40
2019-05-06T19:12:41.665Z,32.90
2019-05-06T19:15:47.537Z,32.80
2019-05-06T19:18:52.470Z,33.10
2019-05-06T19:21:56.264Z,33.30
2019-05-06T19:25:02.461Z,33.80
2019-05-06T19:28:05.656Z,34.00
2019-05-06T19:31:09.380Z,34.00
2019-05-06T19:34:13.134Z,34.10
2019-05-06T19:37:17.280Z,33.80
2019-05-06T19:40:23.127Z,34.10
2019-05-06T19:43:27.045Z,34.60
2019-05-06T19:46:32.734Z,34.40
2019-05-06T19:49:36.534Z,35.00
2019-05-06T19:52:42.191Z,35.20
2019-05-06T19:55:47.130Z,35.80
2019-05-06T19:58:52.552Z,35.60
2019-05-06T20:01:56.679Z,35.70
2019-05-06T20:05:08.930Z,35.80
2019-05-06T20:08:23.166Z,36.10
2019-05-06T20:11:33.979Z,36.40
2019-05-06T20:14:37.653Z,36.20
2019-05-06T20:17:42.457Z,37.10
2019-05-06T20:20:52.866Z,37.20
2019-05-06T20:23:56.766Z,37.40
2019-05-06T20:27:02.385Z,37.90
2019-05-06T20:30:06.773Z,38.00
2019-05-06T20:33:12.313Z,38.40
2019-05-06T20:36:15.869Z,38.00
2019-05-06T20:39:19.844Z,38.10
2019-05-06T20:42:23.533Z,38.00
2019-05-06T20:45:27.594Z,37.90
2019-05-06T20:48:32.523Z,38.10
2019-05-06T20:51:36.433Z,38.10
2019-05-06T20:54:42.480Z,38.60
2019-05-06T20:57:45.558Z,38.30
2019-05-06T21:00:49.269Z,38.60
2019-05-06T21:03:52.980Z,38.40
2019-05-06T21:06:56.627Z,38.30
2019-05-06T21:10:02.254Z,38.60
2019-05-06T21:13:06.037Z,38.30
2019-05-06T21:16:09.773Z,38.40
2019-05-06T21:19:13.790Z,38.50
2019-05-06T21:22:18.029Z,38.50
2019-05-06T21:25:22.588Z,38.10
2019-05-06T21:28:26.453Z,38.30
2019-05-06T21:31:32.486Z,38.80
2019-05-06T21:34:35.801Z,38.40
2019-05-06T21:37:42.077Z,38.90
2019-05-06T21:40:45.189Z,38.60
2019-05-06T21:43:50.297Z,38.60
2019-05-06T21:46:54.154Z,39.40
2019-05-06T21:49:57.906Z,38.90
2019-05-06T21:53:02.695Z,38.90
2019-05-06T21:56:06.821Z,39.30
2019-05-06T21:59:12.707Z,39.30
2019-05-06T22:02:17.637Z,40.10
2019-05-06T22:05:22.628Z,40.00
2019-05-06T22:08:26.467Z,40.40
2019-05-06T22:11:31.898Z,40.90
2019-05-06T22:14:35.513Z,40.70
2019-05-06T22:17:39.225Z,40.80
2019-05-06T22:21:02.922Z,40.50
2019-05-06T22:24:07.253Z,41.00
2019-05-06T22:27:12.322Z,40.90
2019-05-06T22:30:16.406Z,41.40
2019-05-06T22:33:22.424Z,41.00
2019-05-06T22:36:26.250Z,40.60
2019-05-06T22:39:31.682Z,40.90
2019-05-06T22:42:35.448Z,40.40
2019-05-06T22:45:39.395Z,40.60
2019-05-06T22:48:43.460Z,40.10
2019-05-06T22:51:47.237Z,40.10
2019-05-06T22:54:52.749Z,40.60
2019-05-06T22:57:56.802Z,40.60
2019-05-06T23:01:00.473Z,41.00
2019-05-06T23:04:04.618Z,40.80
2019-05-06T23:07:08.634Z,40.60
2019-05-06T23:10:12.715Z,40.20
2019-05-06T23:13:16.428Z,40.60
2019-05-06T23:16:20.322Z,40.60
2019-05-06T23:19:24.458Z,40.40
2019-05-06T23:22:28.589Z,40.30
2019-05-06T23:25:32.723Z,40.40
2019-05-06T23:28:36.454Z,40.50
2019-05-06T23:31:42.465Z,41.30
2019-05-06T23:34:45.846Z,40.70
2019-05-06T23:38:25.329Z,40.20
2019-05-06T23:42:04.998Z,41.00
2019-05-06T23:45:44.777Z,41.10
2019-05-06T23:49:24.088Z,41.50
2019-05-06T23:53:03.488Z,41.40
2019-05-06T23:56:43.794Z,42.20
2019-05-06T23:59:47.842Z,43.20
